createdAt,value
2022-11-14T00:00:58.607Z,17.57
2022-11-14T00:03:44.871Z,12.50
2022-11-14T00:06:31.251Z,16.00
2022-11-14T00:09:16.987Z,16.57
2022-11-14T00:12:03.180Z,20.00
2022-11-14T00:14:50.848Z,14.70
2022-11-14T00:17:37.756Z,16.83
2022-11-14T00:20:24.045Z,16.13
2022-11-14T00:23:10.431Z,19.00
2022-11-14T00:25:56.778Z,17.20
2022-11-14T00:28:43.168Z,18.53
2022-11-14T00:31:30.588Z,19.40
2022-11-14T00:34:17.270Z,18.80
2022-11-14T00:37:03.966Z,23.23
2022-11-14T00:39:50.100Z,19.87
2022-11-14T00:42:37.003Z,22.80
2022-11-14T00:45:23.256Z,21.60
2022-11-14T00:48:09.342Z,20.00
2022-11-14T00:50:55.377Z,21.80
2022-11-14T00:53:42.294Z,23.37
2022-11-14T00:56:29.359Z,24.70
2022-11-14T00:59:15.996Z,23.13
2022-11-14T01:02:05.017Z,21.60
2022-11-14T01:04:53.002Z,24.50
2022-11-14T01:07:40.833Z,22.20
2022-11-14T01:10:26.875Z,23.47
2022-11-14T01:13:13.774Z,22.73
2022-11-14T01:16:02.318Z,24.53
2022-11-14T01:18:48.820Z,26.70
2022-11-14T01:21:35.350Z,20.50
2022-11-14T01:24:21.632Z,23.17
2022-11-14T01:27:07.804Z,22.90
2022-11-14T01:29:54.245Z,22.83
2022-11-14T01:32:40.744Z,24.03
2022-11-14T01:35:27.066Z,28.07
2022-11-14T01:38:16.052Z,20.70
2022-11-14T01:41:04.148Z,23.80
2022-11-14T01:43:50.698Z,23.63
2022-11-14T01:46:42.662Z,25.07
2022-11-14T01:49:43.211Z,24.33
2022-11-14T01:52:40.399Z,24.80
2022-11-14T01:55:27.524Z,24.03
2022-11-14T01:58:16.669Z,25.10
2022-11-14T02:01:04.602Z,23.73
2022-11-14T02:03:56.247Z,25.53
2022-11-14T02:06:42.892Z,26.30
2022-11-14T02:09:39.179Z,23.40
2022-11-14T02:12:25.627Z,21.93
2022-11-14T02:15:14.400Z,26.17
2022-11-14T02:18:02.514Z,22.30
2022-11-14T02:20:48.508Z,23.83
2022-11-14T02:23:34.571Z,26.03
2022-11-14T02:26:23.516Z,22.17
2022-11-14T02:29:12.095Z,23.47
2022-11-14T02:31:58.253Z,22.83
2022-11-14T02:34:44.457Z,22.63
2022-11-14T02:37:31.041Z,25.30
2022-11-14T02:40:17.992Z,21.13
2022-11-14T02:43:04.902Z,26.60
2022-11-14T02:45:51.616Z,26.47
2022-11-14T02:48:37.768Z,25.43
2022-11-14T02:51:24.284Z,26.50
2022-11-14T02:54:10.355Z,28.47
2022-11-14T02:56:57.214Z,22.63
2022-11-14T02:59:43.891Z,27.73
2022-11-14T03:02:29.680Z,26.13
2022-11-14T03:05:16.013Z,28.40
2022-11-14T03:08:01.771Z,26.33
2022-11-14T03:10:47.914Z,29.40
2022-11-14T03:13:34.881Z,26.23
2022-11-14T03:16:21.461Z,24.10
2022-11-14T03:19:07.557Z,27.23
2022-11-14T03:21:54.083Z,26.90
2022-11-14T03:24:40.663Z,25.93
2022-11-14T03:27:27.031Z,28.50
2022-11-14T03:30:13.852Z,25.90
2022-11-14T03:33:00.337Z,24.07
2022-11-14T03:35:50.666Z,25.07
2022-11-14T03:38:37.107Z,27.10
2022-11-14T03:41:23.443Z,26.60
2022-11-14T03:44:09.882Z,28.37
2022-11-14T03:46:55.787Z,28.33
2022-11-14T03:49:42.032Z,30.57
2022-11-14T03:52:27.796Z,26.67
2022-11-14T03:55:14.698Z,29.33
2022-11-14T03:58:01.668Z,26.03
2022-11-14T04:00:48.049Z,29.00
2022-11-14T04:03:34.585Z,31.87
2022-11-14T04:06:21.517Z,28.97
2022-11-14T04:09:07.755Z,29.03
2022-11-14T04:11:53.564Z,27.10
2022-11-14T04:14:39.790Z,26.60
2022-11-14T04:17:26.026Z,29.30
2022-11-14T04:20:14.830Z,28.67
2022-11-14T04:23:01.196Z,24.37
2022-11-14T04:25:48.163Z,28.57
2022-11-14T04:28:34.101Z,30.20
2022-11-14T04:31:20.763Z,37.03
2022-11-14T04:34:06.755Z,28.80
2022-11-14T04:36:53.302Z,27.77
2022-11-14T04:39:39.814Z,32.53
2022-11-14T04:42:26.540Z,31.00
2022-11-14T04:45:12.624Z,34.30
2022-11-14T04:47:59.037Z,24.60
2022-11-14T04:50:46.821Z,33.13
2022-11-14T04:53:32.989Z,28.43
2022-11-14T04:56:19.438Z,27.53
2022-11-14T04:59:05.171Z,33.00
2022-11-14T05:01:51.520Z,28.47
2022-11-14T05:04:37.767Z,31.57
2022-11-14T05:07:24.240Z,26.60
2022-11-14T05:10:11.344Z,31.23
2022-11-14T05:12:57.327Z,33.30
2022-11-14T05:15:43.434Z,32.50
2022-11-14T05:18:30.807Z,36.00
2022-11-14T05:21:17.428Z,34.10
2022-11-14T05:24:04.404Z,34.83
2022-11-14T05:26:50.885Z,38.00
2022-11-14T05:29:37.184Z,35.40
2022-11-14T05:32:23.310Z,33.70
2022-11-14T05:35:09.659Z,32.73
2022-11-14T05:37:59.080Z,30.67
2022-11-14T05:40:45.909Z,30.00
2022-11-14T05:43:31.709Z,26.97
2022-11-14T05:46:17.933Z,30.90
2022-11-14T05:49:04.387Z,27.00
2022-11-14T05:51:50.356Z,27.83
2022-11-14T05:54:36.059Z,32.30
2022-11-14T05:57:22.367Z,38.23
2022-11-14T06:00:11.673Z,31.23
2022-11-14T06:03:00.125Z,34.27
2022-11-14T06:05:46.781Z,30.23
2022-11-14T06:08:34.384Z,35.00
2022-11-14T06:11:21.837Z,33.87
2022-11-14T06:14:10.948Z,27.90
2022-11-14T06:16:57.461Z,36.23
2022-11-14T06:19:44.351Z,31.60
2022-11-14T06:22:30.619Z,36.13
2022-11-14T06:25:23.773Z,33.67
2022-11-14T06:28:11.357Z,35.10
2022-11-14T06:31:05.189Z,39.50
2022-11-14T06:33:52.126Z,40.07
2022-11-14T06:36:38.163Z,34.07
2022-11-14T06:39:24.076Z,33.87
2022-11-14T06:42:11.144Z,36.60
2022-11-14T06:44:57.126Z,36.67
2022-11-14T06:47:42.904Z,32.10
2022-11-14T06:50:28.890Z,32.70
2022-11-14T06:53:15.328Z,34.60
2022-11-14T06:56:13.606Z,37.27
2022-11-14T06:59:00.176Z,36.80
2022-11-14T07:01:46.055Z,41.50
2022-11-14T07:04:32.105Z,54.00
2022-11-14T07:07:18.586Z,78.67
2022-11-14T07:10:05.371Z,78.07
2022-11-14T07:12:51.437Z,117.43
2022-11-14T07:15:38.098Z,45.13
2022-11-14T07:18:24.408Z,37.37
2022-11-14T07:21:13.401Z,40.43
2022-11-14T07:23:59.592Z,49.80
2022-11-14T07:26:46.943Z,51.20
2022-11-14T07:29:32.628Z,44.80
2022-11-14T07:32:18.696Z,46.60
2022-11-14T07:35:05.589Z,38.50
2022-11-14T07:37:52.404Z,43.33
2022-11-14T07:40:39.373Z,40.93
2022-11-14T07:43:27.051Z,40.90
2022-11-14T07:46:18.960Z,38.27
2022-11-14T07:49:05.129Z,41.60
2022-11-14T07:51:52.644Z,35.70
2022-11-14T07:54:39.315Z,35.20
2022-11-14T07:57:25.623Z,31.40
2022-11-14T08:00:13.720Z,33.03
2022-11-14T08:03:00.084Z,30.60
2022-11-14T08:05:46.118Z,29.27
2022-11-14T08:08:39.571Z,31.57
2022-11-14T08:11:44.630Z,29.53
2022-11-14T08:14:30.966Z,31.90
2022-11-14T08:17:16.763Z,26.47
2022-11-14T08:20:05.997Z,26.87
2022-11-14T08:23:01.736Z,24.83
2022-11-14T08:25:47.937Z,26.13
2022-11-14T08:28:34.607Z,20.63
2022-11-14T08:31:22.258Z,18.07
2022-11-14T08:34:08.713Z,19.37
2022-11-14T08:36:56.755Z,18.03
2022-11-14T08:39:43.849Z,19.13
2022-11-14T08:42:29.970Z,17.60
2022-11-14T08:45:16.468Z,22.50
2022-11-14T08:48:02.526Z,21.10
2022-11-14T08:50:48.557Z,23.37
2022-11-14T08:53:35.502Z,19.37
2022-11-14T08:56:21.768Z,17.77
2022-11-14T08:59:08.174Z,18.20
2022-11-14T09:01:54.686Z,20.87
2022-11-14T09:04:41.169Z,18.93
2022-11-14T09:07:28.738Z,16.43
2022-11-14T09:10:16.113Z,19.43
2022-11-14T09:13:02.898Z,22.60
2022-11-14T09:15:49.815Z,19.83
2022-11-14T09:18:37.612Z,19.97
2022-11-14T09:21:23.905Z,24.27
2022-11-14T09:24:10.751Z,22.50
2022-11-14T09:26:57.417Z,23.70
2022-11-14T09:29:44.187Z,20.67
2022-11-14T09:32:30.482Z,20.47
2022-11-14T09:35:17.499Z,22.20
2022-11-14T09:38:13.063Z,24.57
2022-11-14T09:41:39.221Z,21.67
2022-11-14T09:44:58.680Z,20.47
2022-11-14T09:48:00.453Z,23.33
2022-11-14T09:51:16.910Z,20.47
2022-11-14T09:54:24.433Z,29.50
2022-11-14T09:57:20.368Z,24.57
2022-11-14T10:00:33.507Z,22.00
2022-11-14T10:03:34.197Z,24.07
2022-11-14T10:06:41.268Z,19.97
2022-11-14T10:10:13.451Z,23.50
2022-11-14T10:13:43.944Z,21.87
2022-11-14T10:17:29.653Z,23.33
2022-11-14T10:21:10.480Z,25.40
2022-11-14T10:24:52.491Z,21.73
2022-11-14T10:29:06.425Z,24.13
2022-11-14T10:32:47.708Z,24.97
2022-11-14T10:35:57.836Z,21.93
2022-11-14T10:39:19.949Z,24.67
2022-11-14T10:42:41.609Z,21.80
2022-11-14T10:45:44.847Z,23.10
2022-11-14T10:48:47.546Z,23.33
2022-11-14T10:51:50.546Z,21.53
2022-11-14T10:55:00.251Z,21.40
2022-11-14T10:57:47.225Z,20.43
2022-11-14T11:00:33.495Z,16.60
2022-11-14T11:03:20.092Z,21.00
2022-11-14T11:06:06.696Z,17.10
2022-11-14T11:09:12.010Z,20.70
2022-11-14T11:12:04.026Z,15.00
2022-11-14T11:15:20.390Z,20.90
2022-11-14T11:18:29.826Z,15.90
2022-11-14T11:21:24.176Z,15.57
2022-11-14T11:24:31.270Z,14.87
2022-11-14T11:27:28.552Z,15.27
2022-11-14T11:30:23.860Z,14.33
2022-11-14T11:33:32.339Z,13.50
2022-11-14T11:36:27.396Z,10.77
2022-11-14T11:39:33.448Z,13.80
2022-11-14T11:43:31.713Z,12.67
2022-11-14T11:45:54.957Z,11.63
2022-11-14T11:48:41.824Z,14.27
2022-11-14T11:51:31.350Z,17.30
2022-11-14T11:54:33.383Z,17.00
2022-11-14T11:57:33.844Z,18.00
2022-11-14T12:00:23.326Z,21.53
2022-11-14T12:03:20.318Z,20.47
2022-11-14T12:06:28.607Z,21.17
2022-11-14T12:14:07.288Z,20.60
2022-11-14T12:17:58.992Z,17.10
2022-11-14T12:21:57.320Z,19.30
2022-11-14T12:25:44.616Z,18.37
2022-11-14T12:29:25.381Z,20.73
2022-11-14T12:32:33.832Z,19.37
2022-11-14T12:35:37.098Z,19.03
2022-11-14T12:38:26.561Z,21.70
2022-11-14T12:41:26.513Z,16.57
2022-11-14T12:44:36.523Z,18.03
2022-11-14T12:47:29.762Z,18.63
2022-11-14T12:50:43.382Z,18.70
2022-11-14T12:53:38.637Z,21.40
2022-11-14T12:56:31.592Z,22.83
2022-11-14T12:59:49.829Z,18.50
2022-11-14T13:03:36.498Z,17.63
2022-11-14T13:07:13.261Z,17.70
2022-11-14T13:10:41.083Z,20.37
2022-11-14T13:13:47.051Z,14.90
2022-11-14T13:16:51.871Z,14.70
2022-11-14T13:20:05.741Z,16.53
2022-11-14T13:22:52.874Z,18.67
2022-11-14T13:25:38.939Z,16.53
2022-11-14T13:28:51.659Z,17.87
2022-11-14T13:31:40.781Z,13.93
2022-11-14T13:35:03.372Z,16.33
2022-11-14T13:38:20.025Z,16.67
2022-11-14T13:41:49.653Z,15.37
2022-11-14T13:45:18.321Z,12.73
2022-11-14T13:49:13.369Z,15.40
2022-11-14T13:51:59.770Z,15.17
2022-11-14T13:54:51.284Z,14.63
2022-11-14T13:58:04.766Z,14.07
2022-11-14T14:01:31.680Z,13.17
2022-11-14T14:05:33.654Z,13.40
2022-11-14T14:09:16.243Z,15.60
2022-11-14T14:12:39.157Z,13.53
2022-11-14T14:16:07.594Z,13.87
2022-11-14T14:19:25.967Z,16.60
2022-11-14T14:22:59.155Z,14.07
2022-11-14T14:26:15.476Z,13.00
2022-11-14T14:29:36.808Z,15.57
2022-11-14T14:32:25.511Z,16.33
2022-11-14T14:35:28.858Z,14.03
2022-11-14T14:38:28.145Z,15.17
2022-11-14T14:41:20.437Z,14.10
2022-11-14T14:44:23.566Z,18.80
2022-11-14T14:47:42.473Z,15.90
2022-11-14T14:50:41.263Z,13.40
2022-11-14T14:53:36.631Z,17.37
2022-11-14T14:56:26.811Z,13.50
2022-11-14T14:59:23.963Z,16.43
2022-11-14T15:02:28.909Z,18.37
2022-11-14T15:05:36.185Z,17.60
2022-11-14T15:08:22.366Z,15.37
2022-11-14T15:11:09.204Z,18.30
2022-11-14T15:14:06.565Z,16.70
2022-11-14T15:16:56.395Z,15.57
2022-11-14T15:19:47.275Z,14.87
2022-11-14T15:22:33.775Z,15.40
2022-11-14T15:25:21.150Z,17.33
2022-11-14T15:28:22.881Z,16.70
2022-11-14T15:31:22.623Z,16.90
2022-11-14T15:34:33.864Z,18.33
2022-11-14T15:37:23.698Z,18.30
2022-11-14T15:40:22.923Z,15.03
2022-11-14T15:43:55.322Z,16.93
2022-11-14T15:46:47.763Z,17.20
2022-11-14T15:49:34.200Z,14.43
2022-11-14T15:52:35.812Z,16.87
2022-11-14T15:55:24.958Z,16.13
2022-11-14T15:58:27.698Z,19.00
2022-11-14T16:01:27.294Z,19.37
2022-11-14T16:04:34.046Z,19.10
2022-11-14T16:07:20.954Z,19.00
2022-11-14T16:10:24.245Z,18.07
2022-11-14T16:13:11.302Z,19.27
2022-11-14T16:15:57.230Z,16.27
2022-11-14T16:18:43.557Z,18.33
2022-11-14T16:21:30.206Z,20.07
2022-11-14T16:24:24.106Z,20.00
2022-11-14T16:27:10.657Z,18.73
2022-11-14T16:29:57.141Z,18.20
2022-11-14T16:32:48.518Z,18.57
2022-11-14T16:35:35.012Z,17.87
2022-11-14T16:38:21.398Z,20.40
2022-11-14T16:41:09.977Z,22.73
2022-11-14T16:43:57.747Z,19.83
2022-11-14T16:46:46.543Z,20.77
2022-11-14T16:49:32.767Z,18.43
2022-11-14T16:52:19.973Z,18.77
2022-11-14T16:55:10.624Z,21.30
2022-11-14T16:57:57.205Z,24.50
2022-11-14T17:00:46.420Z,18.30
2022-11-14T17:03:33.556Z,23.17
2022-11-14T17:06:20.215Z,21.50
2022-11-14T17:09:06.537Z,21.33
2022-11-14T17:11:52.801Z,18.63
2022-11-14T17:14:39.150Z,19.80
2022-11-14T17:17:26.012Z,22.43
2022-11-14T17:20:12.407Z,23.07
2022-11-14T17:22:59.055Z,19.43
2022-11-14T17:25:45.589Z,21.47
2022-11-14T17:28:31.918Z,26.00
2022-11-14T17:31:19.357Z,27.13
2022-11-14T17:34:08.899Z,25.13
2022-11-14T17:36:55.003Z,23.97
2022-11-14T17:39:40.778Z,23.30
2022-11-14T17:42:27.516Z,28.73
2022-11-14T17:45:14.051Z,27.77
2022-11-14T17:48:00.471Z,24.83
2022-11-14T17:50:46.336Z,20.07
2022-11-14T17:53:37.078Z,20.30
2022-11-14T17:56:26.904Z,22.80
2022-11-14T17:59:13.143Z,21.93
2022-11-14T18:02:02.306Z,21.13
2022-11-14T18:04:48.894Z,19.47
2022-11-14T18:07:35.928Z,17.30
2022-11-14T18:10:22.219Z,19.40
2022-11-14T18:13:10.049Z,17.83
2022-11-14T18:16:05.631Z,20.10
2022-11-14T18:18:52.335Z,23.77
2022-11-14T18:21:40.126Z,19.60
2022-11-14T18:24:25.994Z,22.40
2022-11-14T18:27:15.241Z,21.47
2022-11-14T18:30:13.889Z,17.43
2022-11-14T18:33:07.730Z,16.80
2022-11-14T18:36:00.390Z,21.20
2022-11-14T18:38:47.196Z,16.63
2022-11-14T18:41:33.567Z,16.70
2022-11-14T18:44:21.189Z,18.73
2022-11-14T18:47:07.609Z,17.50
2022-11-14T18:49:53.861Z,17.57
2022-11-14T18:52:40.162Z,16.87
2022-11-14T18:55:26.642Z,14.67
2022-11-14T18:58:15.075Z,13.63
2022-11-14T19:01:28.464Z,14.43
2022-11-14T19:04:17.426Z,18.00
2022-11-14T19:07:03.960Z,15.80
2022-11-14T19:09:50.105Z,17.00
2022-11-14T19:12:36.190Z,18.10
2022-11-14T19:15:22.026Z,16.10
2022-11-14T19:18:09.440Z,22.40
2022-11-14T19:21:02.844Z,16.73
2022-11-14T19:23:50.540Z,14.30
2022-11-14T19:26:37.023Z,15.00
2022-11-14T19:29:23.962Z,17.43
2022-11-14T19:32:10.133Z,19.87
2022-11-14T19:34:56.015Z,15.57
2022-11-14T19:37:41.928Z,17.73
2022-11-14T19:40:30.041Z,15.97
2022-11-14T19:43:18.895Z,14.20
2022-11-14T19:46:07.293Z,16.87
2022-11-14T19:49:00.632Z,14.63
2022-11-14T19:51:47.178Z,15.60
2022-11-14T19:54:33.621Z,16.70
2022-11-14T19:57:20.058Z,16.37
2022-11-14T20:00:07.700Z,16.07
2022-11-14T20:02:54.150Z,15.13
2022-11-14T20:05:41.000Z,14.47
2022-11-14T20:08:27.580Z,16.07
2022-11-14T20:11:13.570Z,17.37
2022-11-14T20:14:02.355Z,15.57
2022-11-14T20:16:48.541Z,16.73
2022-11-14T20:19:34.785Z,16.80
2022-11-14T20:22:21.343Z,17.20
2022-11-14T20:25:08.306Z,20.43
2022-11-14T20:27:58.700Z,20.30
2022-11-14T20:30:45.912Z,19.07
2022-11-14T20:33:38.027Z,17.90
2022-11-14T20:36:31.900Z,20.73
2022-11-14T20:39:25.281Z,18.33
2022-11-14T20:42:11.856Z,16.83
2022-11-14T20:44:58.454Z,19.73
2022-11-14T20:47:44.315Z,20.73
2022-11-14T20:50:31.003Z,19.20
2022-11-14T20:53:18.394Z,20.13
2022-11-14T20:56:05.043Z,21.33
2022-11-14T20:58:52.226Z,20.37
2022-11-14T21:01:43.491Z,16.47
2022-11-14T21:04:30.395Z,17.40
2022-11-14T21:07:17.122Z,20.53
2022-11-14T21:10:21.672Z,16.17
2022-11-14T21:13:29.651Z,18.27
2022-11-14T21:16:20.213Z,16.77
2022-11-14T21:19:07.613Z,18.63
2022-11-14T21:21:53.641Z,17.90
2022-11-14T21:24:40.039Z,18.73
2022-11-14T21:27:26.399Z,17.60
2022-11-14T21:30:14.427Z,17.73
2022-11-14T21:33:00.736Z,16.63
2022-11-14T21:35:47.122Z,18.17
2022-11-14T21:38:33.521Z,16.40
2022-11-14T21:41:24.542Z,15.87
2022-11-14T21:44:17.847Z,18.07
2022-11-14T21:47:03.765Z,16.03
2022-11-14T21:49:50.777Z,16.80
2022-11-14T21:52:37.707Z,19.67
2022-11-14T21:55:23.774Z,21.90
2022-11-14T21:58:09.944Z,17.80
2022-11-14T22:00:56.325Z,22.10
2022-11-14T22:04:01.628Z,19.50
2022-11-14T22:06:47.402Z,19.10
2022-11-14T22:09:36.969Z,18.70
2022-11-14T22:12:24.727Z,18.77
2022-11-14T22:15:11.098Z,18.73
2022-11-14T22:17:58.226Z,16.97
2022-11-14T22:20:44.710Z,17.63
2022-11-14T22:23:31.058Z,14.97
2022-11-14T22:26:17.020Z,14.50
2022-11-14T22:29:03.045Z,16.10
2022-11-14T22:31:53.002Z,17.27
2022-11-14T22:34:38.939Z,18.43
2022-11-14T22:37:25.315Z,17.93
2022-11-14T22:40:14.156Z,16.00
2022-11-14T22:43:03.455Z,15.67
2022-11-14T22:45:53.997Z,19.20
2022-11-14T22:48:49.115Z,17.30
2022-11-14T22:51:35.852Z,18.97
2022-11-14T22:54:22.153Z,19.87
2022-11-14T22:57:08.371Z,24.23
2022-11-14T22:59:55.087Z,16.87
2022-11-14T23:02:41.237Z,20.63
2022-11-14T23:05:27.967Z,30.97
2022-11-14T23:08:20.807Z,16.77
2022-11-14T23:11:16.229Z,16.07
2022-11-14T23:14:02.819Z,16.10
2022-11-14T23:16:52.324Z,15.17
2022-11-14T23:19:38.538Z,14.90
2022-11-14T23:22:24.917Z,15.17
2022-11-14T23:25:11.317Z,14.47
2022-11-14T23:27:58.918Z,13.63
2022-11-14T23:30:45.359Z,17.80
2022-11-14T23:33:35.699Z,15.57
2022-11-14T23:36:22.627Z,17.47
2022-11-14T23:39:08.909Z,18.20
2022-11-14T23:41:54.909Z,14.83
2022-11-14T23:44:40.930Z,14.50
2022-11-14T23:47:27.085Z,18.00
2022-11-14T23:50:13.330Z,12.53
2022-11-14T23:52:59.312Z,12.27
2022-11-14T23:55:59.583Z,13.27
2022-11-14T23:58:45.914Z,14.10
